Terminal Aerodrome Forecast
Issued by NWS Northern Indiana

Home | Current Version | Previous Version | Text Only | Print | Product List | Glossary On
Versions: 1 2 3 4 5 6 7 8 9 10 11 12 13 14 15 16
000
FTUS43 KIWX 261931 AAA
TAFFWA
TAF AMD
KFWA 261931Z 2620/2718 32005KT P6SM SCT020 BKN040
     FM270800 00000KT 5SM BR FEW040
      TEMPO 2711/2713 2SM BR BKN006
     FM271400 VRB04KT P6SM SCT150=

USA.gov is the U.S. government's official web portal to all federal, state and local government web resources and services.